Terminal Aerodrome Forecast
Issued by NWS

Home | Current Version | Previous Version | Text Only | Print | Product List | Glossary On
Versions: 1 2 3 4 5 6 7 8 9 10 11 12 13 14
000
FTAK31 PAJN 261152
TAFAKT
TAF
PAKT 261152Z 2612/2712 14010KT 4SM -RA BR BKN009 OVC015
      WS010/17030KT
      TEMPO 2612/2616 14010G20KT 2SM -RA BR BKN005 OVC012
     FM270000 13012KT 4SM -RA SCT007 OVC015
     FM270400 14008KT 6SM -RA OVC021
      AMD LTD TO CLD VIS AND WIND 2612/2615=

USA.gov is the U.S. government's official web portal to all federal, state and local government web resources and services.